createdAt,value
2022-08-25T05:27:19.877Z,18.58
2022-08-25T05:29:47.229Z,18.74
2022-08-25T05:32:14.665Z,18.89
2022-08-25T05:34:42.416Z,19.07
2022-08-25T05:37:12.173Z,19.20
2022-08-25T05:39:40.137Z,19.35
2022-08-25T05:42:07.613Z,19.44
2022-08-25T05:44:35.204Z,19.51
2022-08-25T05:47:02.274Z,19.58
2022-08-25T05:49:29.384Z,19.64
2022-08-25T05:51:56.517Z,19.73
2022-08-25T05:58:30.499Z,19.95
2022-08-25T06:01:19.304Z,20.06
2022-08-25T06:03:47.965Z,20.16
2022-08-25T06:06:18.707Z,20.18
2022-08-25T06:08:46.076Z,20.29
2022-08-25T06:11:16.214Z,20.39
2022-08-25T06:13:43.831Z,20.35
2022-08-25T06:16:11.013Z,20.30
2022-08-25T06:18:38.204Z,20.39
2022-08-25T06:21:13.084Z,20.48
2022-08-25T06:23:41.006Z,20.50
2022-08-25T06:26:13.187Z,20.45
2022-08-25T06:28:49.085Z,20.46
2022-08-25T06:31:17.355Z,20.54
2022-08-25T06:33:44.884Z,20.70
2022-08-25T06:36:12.761Z,20.74
2022-08-25T06:38:40.426Z,20.80
2022-08-25T06:41:10.626Z,20.89
2022-08-25T06:43:41.703Z,20.89
2022-08-25T06:46:19.052Z,20.81
2022-08-25T06:48:46.308Z,20.98
2022-08-25T06:51:17.067Z,21.11
2022-08-25T06:53:46.471Z,21.15
2022-08-25T06:56:15.239Z,21.28
2022-08-25T06:58:43.234Z,21.28
2022-08-25T07:01:20.778Z,21.23
2022-08-25T07:03:49.007Z,21.16
2022-08-25T07:06:21.250Z,21.27
2022-08-25T07:08:48.731Z,21.24
2022-08-25T07:11:17.450Z,21.31
2022-08-25T07:13:45.759Z,21.51
2022-08-25T07:16:17.544Z,21.51
2022-08-25T07:18:45.390Z,21.64
2022-08-25T07:21:13.881Z,21.71
2022-08-25T07:23:41.998Z,21.56
2022-08-25T07:26:36.637Z,21.62
2022-08-25T07:29:12.224Z,21.56
2022-08-25T07:31:40.037Z,21.54
2022-08-25T07:34:27.101Z,21.65
2022-08-25T07:36:57.028Z,21.63
2022-08-25T07:39:25.675Z,21.71
2022-08-25T07:41:53.608Z,21.86
2022-08-25T07:44:43.457Z,21.93
2022-08-25T07:47:10.838Z,22.03
2022-08-25T07:49:39.888Z,22.09
2022-08-25T07:52:07.358Z,22.22
2022-08-25T07:54:37.904Z,22.27
2022-08-25T07:57:07.875Z,22.45
2022-08-25T07:59:40.244Z,22.68
2022-08-25T08:02:18.025Z,22.79
2022-08-25T08:04:51.307Z,22.94
2022-08-25T08:07:23.029Z,23.00
2022-08-25T08:10:04.766Z,23.15
2022-08-25T08:12:39.665Z,23.37
2022-08-25T08:15:10.255Z,23.50
2022-08-25T08:17:39.794Z,23.59
2022-08-25T08:20:11.459Z,23.52
2022-08-25T08:22:41.242Z,23.67
2022-08-25T08:25:11.047Z,23.67
2022-08-25T08:27:42.924Z,23.80
2022-08-25T08:30:11.248Z,23.71
2022-08-25T08:33:06.307Z,23.84
2022-08-25T08:35:26.254Z,23.81
2022-08-25T08:37:53.949Z,24.01
2022-08-25T08:40:21.874Z,24.06
2022-08-25T08:43:04.293Z,24.26
2022-08-25T08:45:40.281Z,24.47
2022-08-25T08:48:22.385Z,24.38
2022-08-25T08:50:59.373Z,24.37
2022-08-25T08:53:37.964Z,24.56
2022-08-25T08:56:12.372Z,24.60
2022-08-25T08:58:50.145Z,24.63
2022-08-25T09:01:36.193Z,24.64
2022-08-25T09:04:11.473Z,24.61
2022-08-25T09:06:49.828Z,24.61
2022-08-25T09:09:35.687Z,24.52
2022-08-25T09:12:12.663Z,24.71
2022-08-25T09:14:40.494Z,24.85
2022-08-25T09:17:58.847Z,24.87
2022-08-25T09:21:11.101Z,25.00
2022-08-25T09:24:06.252Z,25.06
2022-08-25T09:26:40.056Z,25.20
2022-08-25T09:29:16.599Z,25.43
2022-08-25T09:31:45.440Z,25.63
2022-08-25T09:34:19.023Z,25.79
2022-08-25T09:36:48.953Z,25.81
2022-08-25T09:39:16.768Z,25.92
2022-08-25T09:41:56.379Z,26.00
2022-08-25T09:44:26.973Z,26.13
2022-08-25T09:47:02.450Z,26.20
2022-08-25T09:49:45.641Z,26.29
2022-08-25T09:52:25.361Z,26.34
2022-08-25T09:54:57.685Z,26.34
2022-08-25T09:57:43.278Z,26.47
2022-08-25T10:00:22.448Z,26.56
2022-08-25T10:03:09.255Z,26.97
2022-08-25T10:05:56.321Z,27.22
2022-08-25T10:08:36.155Z,27.44
2022-08-25T10:11:09.018Z,27.18
2022-08-25T10:13:43.048Z,27.61
2022-08-25T10:16:24.148Z,27.89
2022-08-25T10:19:10.383Z,27.97
2022-08-25T10:21:40.382Z,27.91
2022-08-25T10:24:11.272Z,28.22
2022-08-25T10:26:57.478Z,28.79
2022-08-25T10:29:46.320Z,29.04
2022-08-25T10:32:22.219Z,29.30
2022-08-25T10:34:54.594Z,29.57
2022-08-25T10:37:45.287Z,29.92
2022-08-25T10:40:25.410Z,30.40
2022-08-25T10:43:25.547Z,30.43
2022-08-25T10:46:16.423Z,30.52
2022-08-25T10:49:04.216Z,30.89
2022-08-25T10:51:51.006Z,31.43
2022-08-25T10:54:32.257Z,31.94
2022-08-25T10:57:21.694Z,31.65
2022-08-25T11:00:05.128Z,31.10
2022-08-25T11:02:44.629Z,30.69
2022-08-25T11:05:30.353Z,30.74
2022-08-25T11:08:14.561Z,30.25
2022-08-25T11:10:56.638Z,29.91
2022-08-25T11:13:34.407Z,29.66
2022-08-25T11:16:18.920Z,29.67
2022-08-25T11:18:53.260Z,30.12
2022-08-25T11:21:36.481Z,30.17
2022-08-25T11:24:15.495Z,29.98
2022-08-25T11:26:53.557Z,30.28
2022-08-25T11:29:23.973Z,30.27
2022-08-25T11:32:00.541Z,30.71
2022-08-25T11:34:32.570Z,31.48
2022-08-25T11:37:11.317Z,32.24
2022-08-25T11:40:04.031Z,32.80
2022-08-25T11:42:37.430Z,33.39
2022-08-25T11:45:42.402Z,33.67
2022-08-25T11:48:35.535Z,34.02
2022-08-25T11:51:06.833Z,33.87
2022-08-25T11:53:45.745Z,34.24
2022-08-25T11:56:33.350Z,34.02
2022-08-25T11:59:02.133Z,34.17
2022-08-25T12:01:32.655Z,34.95
2022-08-25T12:04:18.923Z,35.24
2022-08-25T12:07:23.953Z,35.18
2022-08-25T12:09:51.496Z,35.47
2022-08-25T12:15:32.901Z,35.97
2022-08-25T12:25:33.958Z,36.91
2022-08-25T12:28:43.354Z,37.65
2022-08-25T12:31:32.674Z,38.13
2022-08-25T12:34:11.038Z,38.06
2022-08-25T12:36:40.174Z,38.42
2022-08-25T12:39:24.396Z,39.10
2022-08-25T12:42:29.926Z,39.51
2022-08-25T12:45:21.619Z,38.91
2022-08-25T12:47:50.034Z,39.36
2022-08-25T12:50:41.655Z,39.21
2022-08-25T12:53:15.767Z,39.46
2022-08-25T12:56:00.635Z,38.71
2022-08-25T12:58:56.587Z,38.91
2022-08-25T13:01:35.604Z,38.65
2022-08-25T13:04:12.553Z,38.43
2022-08-25T13:07:09.423Z,39.49
2022-08-25T13:09:52.576Z,39.89
2022-08-25T13:12:45.532Z,39.66
2022-08-25T13:15:18.136Z,39.16
2022-08-25T13:17:49.299Z,40.14
2022-08-25T13:20:24.857Z,40.55
2022-08-25T13:22:57.902Z,40.30
2022-08-25T13:25:32.681Z,39.22
2022-08-25T13:28:06.649Z,37.28
2022-08-25T13:30:39.466Z,36.74
2022-08-25T13:33:22.940Z,36.71
2022-08-25T13:36:13.140Z,36.66
2022-08-25T13:38:40.526Z,37.02
2022-08-25T13:41:10.030Z,37.48
2022-08-25T13:43:39.207Z,37.46
2022-08-25T13:46:10.691Z,37.71
2022-08-25T13:48:49.797Z,38.72
2022-08-25T13:51:31.356Z,37.99
2022-08-25T13:54:06.267Z,37.75
2022-08-25T13:56:41.362Z,37.97
2022-08-25T13:59:35.286Z,38.35
2022-08-25T14:02:19.269Z,38.08
2022-08-25T14:04:51.244Z,38.56
2022-08-25T14:07:26.047Z,38.71
2022-08-25T14:09:58.131Z,39.53
2022-08-25T14:12:40.339Z,39.83
2022-08-25T14:18:26.931Z,39.70
2022-08-25T14:20:56.274Z,39.09
2022-08-25T14:23:27.672Z,39.27
2022-08-25T14:25:57.150Z,39.95
2022-08-25T14:28:27.352Z,39.77
2022-08-25T14:30:58.817Z,39.77
2022-08-25T14:33:37.278Z,38.93
2022-08-25T14:36:05.466Z,38.82
2022-08-25T14:38:33.832Z,38.38
2022-08-25T14:41:01.861Z,36.83
2022-08-25T14:43:31.421Z,37.44
2022-08-25T14:46:07.500Z,37.30
2022-08-25T14:48:47.020Z,37.86
2022-08-25T14:51:17.265Z,38.10
2022-08-25T14:53:44.745Z,38.43
2022-08-25T14:56:12.087Z,39.62
2022-08-25T14:58:48.351Z,39.62
2022-08-25T15:01:29.504Z,40.39
2022-08-25T15:04:10.656Z,40.46
2022-08-25T15:06:42.132Z,40.76
2022-08-25T15:09:15.967Z,40.37
2022-08-25T15:11:46.625Z,40.21
2022-08-25T15:14:19.235Z,39.05
2022-08-25T15:16:58.567Z,38.68
2022-08-25T15:19:27.193Z,37.84
2022-08-25T15:21:57.919Z,36.49
2022-08-25T15:24:29.923Z,35.56
2022-08-25T15:29:43.014Z,35.03
2022-08-25T15:32:10.319Z,34.68
2022-08-25T15:34:38.607Z,34.20
2022-08-25T15:37:11.564Z,34.07
2022-08-25T15:39:42.541Z,33.59
2022-08-25T15:42:12.568Z,33.18
2022-08-25T15:44:40.425Z,33.14
2022-08-25T15:47:08.652Z,33.22
2022-08-25T15:49:40.077Z,33.22
2022-08-25T15:52:07.275Z,32.99
2022-08-25T15:54:34.768Z,32.98
2022-08-25T15:57:08.827Z,33.12
2022-08-25T15:59:40.266Z,33.32
2022-08-25T16:02:15.063Z,33.78
2022-08-25T16:04:42.882Z,34.17
2022-08-25T16:07:13.511Z,34.56
2022-08-25T16:09:41.444Z,34.74
2022-08-25T16:12:08.935Z,34.72
2022-08-25T16:14:38.223Z,34.31
2022-08-25T16:17:06.047Z,34.10
2022-08-25T16:19:33.385Z,33.52
2022-08-25T16:22:03.555Z,33.13
2022-08-25T16:24:38.395Z,32.83
2022-08-25T16:27:11.519Z,32.54
2022-08-25T16:29:46.359Z,32.39
2022-08-25T16:32:14.734Z,32.35
2022-08-25T16:34:44.262Z,32.10
2022-08-25T16:37:12.393Z,31.80
2022-08-25T16:39:44.876Z,31.56
2022-08-25T16:42:14.983Z,31.54
2022-08-25T16:44:44.947Z,31.38
2022-08-25T16:47:17.807Z,31.19
2022-08-25T16:49:48.656Z,31.08
2022-08-25T16:52:35.807Z,30.98
2022-08-25T16:55:15.974Z,30.90
2022-08-25T16:57:51.928Z,30.73
2022-08-25T17:00:22.480Z,30.44
2022-08-25T17:03:01.290Z,30.35
2022-08-25T17:05:29.701Z,30.20
2022-08-25T17:08:18.356Z,30.22
2022-08-25T17:10:47.352Z,30.05
2022-08-25T17:13:14.723Z,30.11
2022-08-25T17:15:45.484Z,30.08
2022-08-25T17:18:13.740Z,30.08
2022-08-25T17:20:45.429Z,29.97
2022-08-25T17:23:13.238Z,29.95
2022-08-25T17:25:43.057Z,29.77
2022-08-25T17:28:12.262Z,29.78
2022-08-25T17:30:40.241Z,29.73
2022-08-25T17:33:07.503Z,29.57
2022-08-25T17:38:09.971Z,29.46
2022-08-25T17:40:37.900Z,29.32
2022-08-25T17:43:08.874Z,29.23
2022-08-25T17:45:37.897Z,29.11
2022-08-25T17:48:09.100Z,29.08
2022-08-25T17:50:38.892Z,28.98
2022-08-25T17:53:06.441Z,28.98
2022-08-25T17:55:35.114Z,28.94
2022-08-25T17:58:05.320Z,28.79
2022-08-25T18:00:32.939Z,28.74
2022-08-25T18:03:00.929Z,28.70
2022-08-25T18:05:30.672Z,28.63
2022-08-25T18:07:57.898Z,28.47
2022-08-25T18:10:26.094Z,28.39
2022-08-25T18:12:53.430Z,28.32
2022-08-25T18:15:21.493Z,28.21
2022-08-25T18:17:50.459Z,28.15
2022-08-25T18:20:17.887Z,27.98
2022-08-25T18:22:45.080Z,27.91
2022-08-25T18:25:14.843Z,27.82
2022-08-25T18:27:44.043Z,27.74
2022-08-25T18:30:12.169Z,27.45
2022-08-25T18:32:39.676Z,27.47
2022-08-25T18:35:07.327Z,27.36
2022-08-25T18:37:53.010Z,27.23
2022-08-25T18:40:23.811Z,27.04
2022-08-25T18:43:02.475Z,27.01
2022-08-25T18:45:33.260Z,26.87
2022-08-25T18:48:01.100Z,26.81
2022-08-25T18:50:33.766Z,26.76
2022-08-25T18:53:03.046Z,26.59
2022-08-25T18:55:34.283Z,26.47
2022-08-25T18:58:01.614Z,26.41
2022-08-25T19:00:31.065Z,26.34
2022-08-25T19:03:00.196Z,26.30
2022-08-25T19:05:34.125Z,26.31
2022-08-25T19:08:04.146Z,26.26
2022-08-25T19:10:32.466Z,26.25
2022-08-25T19:13:02.216Z,26.24
2022-08-25T19:15:36.863Z,26.22
2022-08-25T19:18:09.212Z,26.23
2022-08-25T19:20:37.838Z,26.20
2022-08-25T19:23:07.582Z,26.21
2022-08-25T19:25:36.886Z,26.21
2022-08-25T19:28:12.221Z,26.21
2022-08-25T19:30:39.867Z,26.17
2022-08-25T19:33:34.364Z,26.17
2022-08-25T19:36:08.691Z,26.09
2022-08-25T19:38:37.083Z,26.02
2022-08-25T19:41:09.062Z,26.01
2022-08-25T19:43:56.622Z,25.99
2022-08-25T19:46:33.094Z,25.92
2022-08-25T19:49:08.348Z,25.91
2022-08-25T19:51:39.446Z,25.82
2022-08-25T19:54:09.212Z,25.80
2022-08-25T19:56:53.735Z,25.75
2022-08-25T19:59:40.813Z,25.72
2022-08-25T20:02:25.494Z,25.64
2022-08-25T20:04:59.860Z,25.57
2022-08-25T20:07:31.185Z,25.55
2022-08-25T20:09:59.503Z,25.34
2022-08-25T20:12:28.976Z,25.18
2022-08-25T20:14:56.667Z,25.16
2022-08-25T20:17:28.457Z,25.25
2022-08-25T20:19:58.749Z,25.25
2022-08-25T20:22:29.141Z,25.24
2022-08-25T20:25:01.211Z,25.20
2022-08-25T20:27:33.956Z,25.13
2022-08-25T20:30:02.833Z,24.89
2022-08-25T20:32:32.820Z,24.86
2022-08-25T20:35:01.211Z,24.80
2022-08-25T20:37:29.175Z,24.80
2022-08-25T20:39:56.573Z,24.75
2022-08-25T20:42:24.770Z,24.78
2022-08-25T20:44:52.916Z,24.80
2022-08-25T20:47:21.246Z,24.78
2022-08-25T20:49:51.045Z,24.71
2022-08-25T20:52:19.867Z,24.64
2022-08-25T20:54:49.444Z,24.66
2022-08-25T20:57:25.494Z,24.68
2022-08-25T20:59:54.180Z,24.57
2022-08-25T21:02:22.182Z,24.52
2022-08-25T21:04:51.786Z,24.53
2022-08-25T21:07:21.366Z,24.51
2022-08-25T21:09:51.804Z,24.42
2022-08-25T21:12:20.224Z,24.41
2022-08-25T21:14:49.025Z,24.39
2022-08-25T21:17:19.008Z,24.35
2022-08-25T21:22:20.666Z,24.30
2022-08-25T21:24:47.794Z,24.26
2022-08-25T21:27:15.296Z,24.23
2022-08-25T21:29:44.589Z,24.20
2022-08-25T21:32:23.680Z,24.16
2022-08-25T21:34:53.066Z,24.19
2022-08-25T21:37:21.061Z,24.19
2022-08-25T21:39:48.604Z,24.11
2022-08-25T21:42:18.815Z,24.10
2022-08-25T21:44:45.926Z,24.12
2022-08-25T21:47:13.062Z,24.07
2022-08-25T21:49:40.201Z,24.11
2022-08-25T21:52:09.764Z,24.04
2022-08-25T21:54:38.082Z,24.04
2022-08-25T21:57:07.081Z,24.01
2022-08-25T21:59:40.238Z,23.98
